Time;durP1;ratioP1;P1;durP2;ratioP2;P2;SDS_P1;SDS_P2;PMS_P1;PMS_P2;Temp;Humidity;BMP_temperature;BMP_pressure;BME280_temperature;BME280_humidity;BME280_pressure;Samples;Min_cycle;Max_cycle;Signal;HPM_P1;HPM_P2
2023/08/22 00:01:04;;;;;;;9.38;4.13;;;18.50;99.90;;;;;;5007626;28;20037;-76
2023/08/22 00:03:30;;;;;;;9.77;4.10;;;18.40;99.90;;;;;;5005784;28;20486;-76
2023/08/22 00:05:56;;;;;;;6.00;3.92;;;18.50;99.90;;;;;;5005864;28;20098;-74
2023/08/22 00:08:21;;;;;;;8.32;3.88;;;18.40;99.90;;;;;;5007294;28;20034;-75
2023/08/22 00:10:47;;;;;;;7.55;3.83;;;18.40;99.90;;;;;;5015343;28;20534;-75
2023/08/22 00:13:12;;;;;;;7.38;3.42;;;18.30;99.90;;;;;;5013169;28;20117;-74
2023/08/22 00:15:38;;;;;;;11.63;3.55;;;18.30;99.90;;;;;;5007287;28;20030;-76
2023/08/22 00:18:04;;;;;;;8.90;3.92;;;18.30;99.90;;;;;;5005653;28;20038;-75
2023/08/22 00:20:29;;;;;;;9.10;4.15;;;18.30;99.90;;;;;;5005711;28;20034;-75
2023/08/22 00:22:55;;;;;;;8.15;3.85;;;18.20;99.90;;;;;;5005174;28;20430;-76
2023/08/22 00:25:20;;;;;;;9.35;3.83;;;18.20;99.90;;;;;;5007709;28;20034;-75
2023/08/22 00:27:46;;;;;;;5.05;3.30;;;18.10;99.90;;;;;;5024534;28;20076;-74
2023/08/22 00:30:12;;;;;;;7.53;3.88;;;18.10;99.90;;;;;;5024885;28;20064;-75
2023/08/22 00:32:37;;;;;;;9.18;4.22;;;18.10;99.90;;;;;;5024860;28;20030;-73
2023/08/22 00:35:03;;;;;;;8.43;3.75;;;18.10;99.90;;;;;;5025109;28;20046;-75
2023/08/22 00:37:29;;;;;;;10.55;3.83;;;18.10;99.90;;;;;;5020124;28;20415;-75
2023/08/22 00:39:54;;;;;;;10.30;4.40;;;18.00;99.90;;;;;;5021638;28;20041;-75
2023/08/22 00:42:20;;;;;;;9.38;4.28;;;18.00;99.90;;;;;;5021498;28;20534;-74
2023/08/22 00:44:46;;;;;;;9.40;4.15;;;18.00;99.90;;;;;;5005021;28;20026;-75
2023/08/22 00:47:12;;;;;;;7.38;4.20;;;18.00;99.90;;;;;;5006508;28;20107;-74
2023/08/22 00:49:38;;;;;;;10.07;4.55;;;18.00;99.90;;;;;;5017364;28;20045;-78
2023/08/22 00:52:04;;;;;;;6.80;3.80;;;17.90;99.90;;;;;;5021764;28;20066;-75
2023/08/22 00:54:31;;;;;;;10.05;4.20;;;17.90;99.90;;;;;;5006216;28;20033;-74
2023/08/22 00:56:57;;;;;;;9.82;4.18;;;17.90;99.90;;;;;;5021354;28;20041;-75
2023/08/22 00:59:27;;;;;;;9.23;4.30;;;17.90;99.90;;;;;;5005981;28;20022;-75
2023/08/22 01:01:53;;;;;;;7.10;3.80;;;17.90;99.90;;;;;;5020928;28;20029;-75
2023/08/22 01:04:20;;;;;;;8.63;3.95;;;17.90;99.90;;;;;;5006215;28;20033;-75
2023/08/22 01:06:54;;;;;;;10.23;4.43;;;17.90;99.90;;;;;;5016315;28;20104;-75
2023/08/22 01:09:44;;;;;;;6.70;3.92;;;17.90;99.90;;;;;;5004569;28;20645;-76
2023/08/22 01:12:36;;;;;;;7.85;4.40;;;17.90;99.90;;;;;;5014928;28;20027;-76
2023/08/22 01:15:20;;;;;;;10.52;5.05;;;17.90;99.90;;;;;;5005767;28;20506;-76
2023/08/22 01:17:48;;;;;;;6.93;4.28;;;17.80;99.90;;;;;;5004910;28;20031;-76
2023/08/22 01:20:14;;;;;;;8.52;4.47;;;17.80;99.90;;;;;;5004648;28;20031;-75
2023/08/22 01:22:40;;;;;;;10.55;4.90;;;17.70;99.90;;;;;;5003908;28;20056;-77
2023/08/22 01:25:08;;;;;;;15.00;5.05;;;17.70;99.90;;;;;;5006025;28;20038;-75
2023/08/22 01:27:50;;;;;;;9.95;4.85;;;17.70;99.90;;;;;;5004424;28;20442;-75
2023/08/22 01:30:23;;;;;;;13.50;5.32;;;17.70;99.90;;;;;;5003961;28;20376;-76
2023/08/22 01:32:52;;;;;;;14.30;4.80;;;17.70;99.90;;;;;;5005524;28;20022;-75
2023/08/22 01:35:22;;;;;;;11.60;4.97;;;17.70;99.90;;;;;;5005166;28;20121;-75
2023/08/22 01:37:49;;;;;;;12.13;4.80;;;17.60;99.90;;;;;;5003940;28;20030;-76
2023/08/22 01:40:16;;;;;;;7.68;4.22;;;17.60;99.90;;;;;;5004090;28;20051;-75
2023/08/22 01:42:42;;;;;;;10.55;4.00;;;17.70;99.90;;;;;;5007709;28;20049;-75
2023/08/22 01:45:08;;;;;;;7.40;4.20;;;17.60;99.90;;;;;;5023914;28;20033;-74
2023/08/22 01:47:35;;;;;;;9.00;4.40;;;17.60;99.90;;;;;;5005658;28;20026;-74
2023/08/22 01:50:04;;;;;;;11.55;4.85;;;17.60;99.90;;;;;;5003123;28;20035;-77
2023/08/22 01:52:30;;;;;;;9.10;4.22;;;17.60;99.90;;;;;;5014753;28;20034;-76
2023/08/22 01:54:55;;;;;;;10.10;4.30;;;17.60;99.90;;;;;;5024408;28;20036;-74
2023/08/22 01:57:21;;;;;;;9.60;4.50;;;17.60;99.90;;;;;;5023168;28;20026;-75
2023/08/22 01:59:47;;;;;;;8.73;4.25;;;17.60;99.90;;;;;;5023471;28;20438;-75
2023/08/22 02:02:12;;;;;;;8.75;4.75;;;17.60;99.90;;;;;;5024572;28;20026;-75
2023/08/22 02:04:38;;;;;;;10.05;4.30;;;17.60;99.90;;;;;;5024843;28;20025;-76
2023/08/22 02:07:04;;;;;;;10.13;4.60;;;17.50;99.90;;;;;;5023997;28;20030;-75
2023/08/22 02:09:29;;;;;;;8.07;4.28;;;17.50;99.90;;;;;;5024495;28;20499;-74
2023/08/22 02:11:55;;;;;;;9.43;4.53;;;17.50;99.90;;;;;;5023122;28;20033;-74
2023/08/22 02:14:20;;;;;;;7.70;4.32;;;17.40;99.90;;;;;;5024777;28;20434;-74
2023/08/22 02:16:46;;;;;;;9.65;4.60;;;17.40;99.90;;;;;;5024791;28;20033;-77
2023/08/22 02:19:11;;;;;;;7.40;4.50;;;17.40;99.90;;;;;;5024381;28;20034;-75
2023/08/22 02:21:37;;;;;;;10.35;4.82;;;17.40;99.90;;;;;;5023547;28;20522;-75
2023/08/22 02:24:03;;;;;;;9.45;4.40;;;17.50;99.90;;;;;;5024069;28;20045;-75
2023/08/22 02:26:30;;;;;;;9.70;4.80;;;17.50;99.90;;;;;;5023969;28;20117;-76
2023/08/22 02:28:56;;;;;;;9.02;4.93;;;17.50;99.90;;;;;;5022882;28;20033;-74
2023/08/22 02:31:21;;;;;;;11.15;4.60;;;17.50;99.90;;;;;;5024035;28;20022;-76
2023/08/22 02:33:47;;;;;;;11.40;4.55;;;17.50;99.90;;;;;;5023856;28;20097;-74
2023/08/22 02:36:13;;;;;;;8.23;4.72;;;17.50;99.90;;;;;;5023303;28;20049;-75
2023/08/22 02:38:38;;;;;;;8.55;4.43;;;17.50;99.90;;;;;;5023201;28;20076;-76
2023/08/22 02:41:04;;;;;;;9.15;4.93;;;17.50;99.90;;;;;;5022502;28;20030;-75
2023/08/22 02:43:30;;;;;;;8.90;4.65;;;17.50;99.90;;;;;;5024289;28;20034;-74
2023/08/22 02:45:56;;;;;;;9.45;4.82;;;17.50;99.90;;;;;;5024253;28;20033;-75
2023/08/22 02:48:21;;;;;;;9.98;5.55;;;17.40;99.90;;;;;;5024487;28;20077;-75
2023/08/22 02:50:50;;;;;;;9.18;4.88;;;17.50;99.90;;;;;;5024080;28;20030;-75
2023/08/22 02:53:16;;;;;;;9.80;4.93;;;17.50;99.90;;;;;;5023926;28;20491;-75
2023/08/22 02:55:42;;;;;;;11.23;5.28;;;17.50;99.90;;;;;;5024080;28;20048;-77
2023/08/22 02:58:10;;;;;;;10.77;5.13;;;17.50;99.90;;;;;;5019366;28;20042;-73
2023/08/22 03:00:36;;;;;;;6.22;4.50;;;17.50;99.90;;;;;;5022727;28;20033;-73
2023/08/22 03:03:03;;;;;;;8.85;4.90;;;17.50;99.90;;;;;;5023827;28;20037;-75
2023/08/22 03:05:29;;;;;;;10.70;4.72;;;17.50;99.90;;;;;;5024237;28;20090;-74
2023/08/22 03:07:54;;;;;;;11.07;5.40;;;17.50;99.90;;;;;;5025841;28;20038;-73
2023/08/22 03:10:20;;;;;;;10.75;5.55;;;17.60;99.90;;;;;;5026256;28;20034;-74
2023/08/22 03:12:47;;;;;;;9.73;4.72;;;17.60;99.90;;;;;;5026242;28;20498;-75
2023/08/22 03:15:12;;;;;;;11.23;5.10;;;17.60;99.90;;;;;;5027858;28;20033;-74
2023/08/22 03:17:38;;;;;;;7.97;4.90;;;17.50;99.90;;;;;;5026052;28;20061;-75
2023/08/22 03:20:05;;;;;;;14.35;5.60;;;17.50;99.90;;;;;;5026465;28;20033;-73
2023/08/22 03:22:30;;;;;;;10.43;5.07;;;17.50;99.90;;;;;;5024639;28;20093;-74
2023/08/22 03:24:56;;;;;;;10.57;5.00;;;17.50;99.90;;;;;;5026861;28;20037;-74
2023/08/22 03:27:21;;;;;;;9.32;4.53;;;17.50;99.90;;;;;;5026129;28;20029;-74
2023/08/22 03:29:47;;;;;;;12.07;5.53;;;17.50;99.90;;;;;;5024444;28;20029;-74
2023/08/22 03:32:13;;;;;;;10.48;4.57;;;17.50;99.90;;;;;;5025532;28;20497;-74
2023/08/22 03:34:38;;;;;;;7.05;4.90;;;17.60;99.90;;;;;;5025351;28;20069;-74
2023/08/22 03:37:04;;;;;;;8.77;4.72;;;17.60;99.90;;;;;;5027281;28;20021;-74
2023/08/22 03:39:30;;;;;;;9.23;4.50;;;17.60;99.90;;;;;;5026195;28;20049;-73
2023/08/22 03:41:55;;;;;;;6.97;4.38;;;17.60;99.90;;;;;;5026430;28;20097;-73
2023/08/22 03:44:21;;;;;;;9.60;4.70;;;17.60;99.90;;;;;;5026227;28;20034;-73
2023/08/22 03:46:47;;;;;;;6.32;4.13;;;17.50;99.90;;;;;;5024893;28;20030;-74
2023/08/22 03:49:15;;;;;;;9.68;4.10;;;17.50;99.90;;;;;;5026197;28;20032;-75
2023/08/22 03:51:40;;;;;;;12.52;4.72;;;17.60;99.90;;;;;;5026529;28;20030;-74
2023/08/22 03:54:06;;;;;;;9.45;3.97;;;17.60;99.90;;;;;;5027464;28;20032;-74
2023/08/22 03:56:31;;;;;;;8.88;4.40;;;17.60;99.90;;;;;;5026098;28;20486;-74
2023/08/22 03:58:58;;;;;;;11.68;4.80;;;17.60;99.90;;;;;;5027022;28;20068;-75
2023/08/22 04:01:23;;;;;;;7.20;4.30;;;17.60;99.90;;;;;;5027013;28;20022;-73
2023/08/22 04:03:49;;;;;;;7.82;4.60;;;17.60;99.90;;;;;;5024736;28;20033;-75
2023/08/22 04:06:14;;;;;;;11.55;4.63;;;17.60;99.90;;;;;;5025489;28;20034;-73
2023/08/22 04:08:40;;;;;;;7.53;4.25;;;17.60;99.90;;;;;;5026468;28;20025;-74
2023/08/22 04:11:06;;;;;;;9.45;3.70;;;17.60;99.90;;;;;;5025369;28;20030;-73
2023/08/22 04:13:31;;;;;;;7.05;4.18;;;17.60;99.90;;;;;;5027089;28;20086;-74
2023/08/22 04:15:57;;;;;;;11.35;4.45;;;17.50;99.90;;;;;;5025466;28;20049;-76
2023/08/22 04:18:23;;;;;;;7.45;3.88;;;17.60;99.90;;;;;;5026102;28;20094;-75
2023/08/22 04:20:48;;;;;;;9.43;4.18;;;17.50;99.90;;;;;;5025440;28;20040;-75
2023/08/22 04:23:14;;;;;;;8.13;4.38;;;17.50;99.90;;;;;;5025480;28;20085;-76
2023/08/22 04:25:40;;;;;;;10.27;4.95;;;17.50;99.90;;;;;;5025833;28;20045;-74
2023/08/22 04:28:05;;;;;;;13.27;5.72;;;17.40;99.90;;;;;;5025263;28;20022;-74
2023/08/22 04:30:31;;;;;;;12.38;5.38;;;17.40;99.90;;;;;;5024892;28;20029;-73
2023/08/22 04:32:57;;;;;;;16.15;6.13;;;17.40;99.90;;;;;;5023640;28;20030;-74
2023/08/22 04:35:23;;;;;;;12.43;6.57;;;17.30;99.90;;;;;;5024693;28;20065;-73
2023/08/22 04:37:49;;;;;;;11.52;6.85;;;17.30;99.90;;;;;;5024557;28;20034;-73
2023/08/22 04:40:15;;;;;;;12.43;6.25;;;17.30;99.90;;;;;;5024364;28;20030;-75
2023/08/22 04:42:41;;;;;;;14.25;6.57;;;17.20;99.90;;;;;;5026118;28;20026;-75
2023/08/22 04:45:07;;;;;;;12.50;6.18;;;17.20;99.90;;;;;;5026326;28;20059;-73
2023/08/22 04:47:33;;;;;;;16.35;6.20;;;17.20;99.90;;;;;;5025502;28;20034;-73
2023/08/22 04:49:59;;;;;;;13.07;5.93;;;17.20;99.90;;;;;;5018216;28;20037;-74
2023/08/22 04:52:25;;;;;;;10.50;5.40;;;17.20;99.90;;;;;;5021746;28;20076;-75
2023/08/22 04:54:50;;;;;;;14.13;5.35;;;17.20;99.90;;;;;;5014627;28;20033;-73
2023/08/22 04:57:16;;;;;;;16.48;5.32;;;17.20;99.90;;;;;;5017798;28;20057;-74
2023/08/22 04:59:41;;;;;;;12.00;5.60;;;17.20;99.90;;;;;;5020501;28;20065;-74
2023/08/22 05:02:07;;;;;;;10.90;5.38;;;17.20;99.90;;;;;;5018197;28;20030;-74
2023/08/22 05:04:33;;;;;;;16.25;5.68;;;17.20;99.90;;;;;;5025972;28;20088;-73
2023/08/22 05:06:59;;;;;;;9.38;5.40;;;17.20;99.90;;;;;;5023937;28;20040;-75
2023/08/22 05:09:24;;;;;;;10.90;5.10;;;17.20;99.90;;;;;;5020301;28;20029;-74
2023/08/22 05:11:50;;;;;;;10.52;5.43;;;17.20;99.90;;;;;;5023603;28;20030;-74
2023/08/22 05:14:17;;;;;;;11.93;5.13;;;17.20;99.90;;;;;;5023940;28;20406;-74
2023/08/22 05:16:45;;;;;;;8.93;5.00;;;17.20;99.90;;;;;;5022138;28;20036;-74
2023/08/22 05:19:11;;;;;;;10.75;5.43;;;17.30;99.90;;;;;;5020804;28;20038;-74
2023/08/22 05:21:36;;;;;;;13.73;5.82;;;17.30;99.90;;;;;;5023744;28;20391;-73
2023/08/22 05:24:03;;;;;;;11.23;5.13;;;17.30;99.90;;;;;;5025267;28;20030;-74
2023/08/22 05:26:28;;;;;;;21.02;6.88;;;17.40;99.90;;;;;;5023728;28;20072;-74
2023/08/22 05:28:54;;;;;;;25.80;7.97;;;17.40;99.90;;;;;;5022007;28;20030;-74
2023/08/22 05:31:23;;;;;;;17.85;6.47;;;17.40;99.90;;;;;;5022621;28;20033;-73
2023/08/22 05:33:50;;;;;;;36.97;7.85;;;17.50;99.90;;;;;;5023455;28;20164;-75
2023/08/22 05:36:16;;;;;;;18.48;6.97;;;17.50;99.90;;;;;;5022457;28;20034;-74
2023/08/22 05:38:42;;;;;;;21.52;8.18;;;17.50;99.90;;;;;;5019615;28;20049;-74
2023/08/22 05:41:08;;;;;;;24.10;7.72;;;17.50;99.90;;;;;;5023638;28;20014;-74
2023/08/22 05:43:38;;;;;;;14.07;7.22;;;17.50;99.90;;;;;;5023320;28;20693;-76
2023/08/22 05:46:03;;;;;;;15.88;6.47;;;17.50;99.90;;;;;;5018959;28;20561;-73
2023/08/22 05:48:30;;;;;;;16.77;6.43;;;17.50;99.90;;;;;;5013684;28;20060;-75
2023/08/22 05:51:01;;;;;;;13.80;7.22;;;17.50;99.90;;;;;;5013595;28;20026;-74
2023/08/22 05:53:27;;;;;;;18.90;7.43;;;17.50;99.90;;;;;;5004982;28;20018;-72
2023/08/22 05:55:52;;;;;;;15.85;6.85;;;17.50;99.90;;;;;;5021853;28;20052;-73
2023/08/22 05:58:18;;;;;;;19.30;7.50;;;17.50;99.90;;;;;;5021085;28;20089;-75
2023/08/22 06:00:43;;;;;;;26.27;7.25;;;17.50;99.90;;;;;;5020537;28;20026;-74
2023/08/22 06:03:09;;;;;;;32.45;7.15;;;17.50;99.90;;;;;;5021413;28;20030;-72
2023/08/22 06:05:35;;;;;;;28.33;8.18;;;17.50;99.90;;;;;;5020699;28;20185;-73
2023/08/22 06:08:01;;;;;;;31.15;7.22;;;17.50;99.90;;;;;;5021819;28;20033;-74
2023/08/22 06:10:26;;;;;;;25.50;6.82;;;17.40;99.90;;;;;;5021063;28;20038;-74
2023/08/22 06:12:52;;;;;;;16.88;6.10;;;17.40;99.90;;;;;;5017394;28;20058;-74
2023/08/22 06:15:17;;;;;;;24.20;6.15;;;17.40;99.90;;;;;;5014584;28;20061;-74
2023/08/22 06:17:43;;;;;;;31.08;6.75;;;17.40;99.90;;;;;;5012931;28;20026;-74
2023/08/22 06:20:09;;;;;;;17.90;6.85;;;17.40;99.90;;;;;;5025690;28;20086;-75
2023/08/22 06:22:35;;;;;;;15.80;6.65;;;17.40;99.90;;;;;;5017992;28;20030;-73
2023/08/22 06:25:04;;;;;;;13.38;6.40;;;17.40;99.90;;;;;;5018655;28;20046;-74
2023/08/22 06:27:30;;;;;;;12.13;6.72;;;17.40;99.90;;;;;;5019613;28;20037;-74
2023/08/22 06:29:56;;;;;;;14.57;6.22;;;17.50;99.90;;;;;;5021015;28;20034;-73
2023/08/22 06:32:22;;;;;;;15.23;6.20;;;17.60;99.90;;;;;;5017383;28;20052;-75
2023/08/22 06:34:48;;;;;;;7.95;4.78;;;17.60;99.90;;;;;;5011546;28;20137;-73
2023/08/22 06:37:14;;;;;;;12.95;5.50;;;17.60;99.90;;;;;;5012399;28;20127;-73
2023/08/22 06:39:39;;;;;;;12.25;5.82;;;17.70;99.90;;;;;;5018837;28;20438;-72
2023/08/22 06:42:06;;;;;;;10.20;5.63;;;17.80;99.90;;;;;;5012069;28;20030;-73
2023/08/22 06:44:32;;;;;;;12.63;5.43;;;17.80;99.90;;;;;;5012105;28;20030;-72
2023/08/22 06:46:57;;;;;;;9.93;5.82;;;17.90;99.90;;;;;;5016405;28;20034;-73
2023/08/22 06:49:23;;;;;;;12.05;5.85;;;18.00;99.90;;;;;;5016166;28;20040;-71
2023/08/22 06:51:48;;;;;;;11.00;5.80;;;18.10;99.90;;;;;;5014455;28;20032;-73
2023/08/22 06:54:14;;;;;;;9.48;6.00;;;18.20;99.90;;;;;;5016402;28;20030;-74
2023/08/22 06:56:39;;;;;;;10.32;6.07;;;18.30;99.90;;;;;;5021889;28;20031;-78
2023/08/22 06:59:05;;;;;;;11.02;6.20;;;18.40;99.90;;;;;;5027712;28;20038;-75
2023/08/22 07:01:31;;;;;;;12.73;6.13;;;18.50;99.90;;;;;;5027164;28;20030;-73
2023/08/22 07:03:56;;;;;;;11.18;6.30;;;18.60;99.90;;;;;;5028313;28;20100;-74
2023/08/22 07:06:22;;;;;;;13.63;6.10;;;18.70;99.90;;;;;;5029587;28;21666;-72
2023/08/22 07:08:47;;;;;;;16.33;6.50;;;18.80;99.90;;;;;;5029025;28;20071;-75
2023/08/22 07:11:13;;;;;;;18.95;6.05;;;18.90;99.90;;;;;;5025458;28;20026;-76
2023/08/22 07:13:39;;;;;;;12.63;6.00;;;19.00;99.90;;;;;;5027605;28;20046;-76
2023/08/22 07:16:05;;;;;;;12.52;6.30;;;19.10;99.90;;;;;;5021803;28;20094;-75
2023/08/22 07:18:31;;;;;;;13.23;6.72;;;19.20;99.90;;;;;;5014066;28;20076;-77
2023/08/22 07:21:02;;;;;;;16.25;6.00;;;19.30;99.90;;;;;;5015005;28;20029;-76
2023/08/22 07:23:28;;;;;;;16.60;6.65;;;19.40;99.90;;;;;;5022257;28;20030;-74
2023/08/22 07:26:01;;;;;;;11.30;5.97;;;19.50;99.90;;;;;;5024670;28;20036;-75
2023/08/22 07:28:27;;;;;;;15.30;6.53;;;19.50;99.90;;;;;;5019032;28;20034;-74
2023/08/22 07:30:53;;;;;;;15.50;6.60;;;19.60;99.90;;;;;;5026014;28;20359;-73
2023/08/22 07:33:19;;;;;;;15.25;6.38;;;19.70;99.90;;;;;;5025533;28;20077;-74
2023/08/22 07:35:48;;;;;;;16.40;5.68;;;19.70;99.90;;;;;;5028554;28;20033;-75
2023/08/22 07:38:14;;;;;;;20.10;5.97;;;19.80;99.90;;;;;;5030531;28;20041;-75
2023/08/22 07:40:40;;;;;;;15.55;6.22;;;19.90;99.90;;;;;;5024805;28;20046;-75
2023/08/22 07:43:06;;;;;;;15.60;5.55;;;20.00;99.90;;;;;;5028583;28;20064;-76
2023/08/22 07:45:32;;;;;;;15.18;5.45;;;20.20;99.90;;;;;;5028788;28;20025;-75
2023/08/22 07:47:58;;;;;;;18.80;4.97;;;20.30;99.90;;;;;;5030111;28;20370;-74
2023/08/22 07:50:24;;;;;;;13.40;4.75;;;20.40;99.90;;;;;;5029940;28;20061;-74
2023/08/22 07:52:50;;;;;;;10.75;4.65;;;20.50;99.90;;;;;;5026538;28;20045;-75
2023/08/22 07:55:15;;;;;;;10.48;4.85;;;20.60;99.90;;;;;;5027367;28;20085;-75
2023/08/22 07:57:41;;;;;;;11.80;4.32;;;20.70;99.90;;;;;;5027000;28;20073;-74
2023/08/22 08:00:11;;;;;;;7.68;4.45;;;20.80;99.90;;;;;;5025977;28;20048;-76
2023/08/22 08:02:40;;;;;;;9.05;4.20;;;20.80;99.90;;;;;;5027072;28;21040;-74
2023/08/22 08:05:06;;;;;;;12.23;4.10;;;20.90;99.90;;;;;;5026791;28;20037;-73
2023/08/22 08:07:32;;;;;;;10.00;4.38;;;21.00;99.90;;;;;;5025855;28;20034;-74
2023/08/22 08:09:58;;;;;;;11.75;4.45;;;21.10;99.90;;;;;;5026542;28;20030;-74
2023/08/22 08:12:24;;;;;;;9.40;4.72;;;21.20;99.90;;;;;;5026686;28;20101;-74
2023/08/22 08:14:49;;;;;;;8.27;4.63;;;21.30;99.90;;;;;;5026501;28;20129;-74
2023/08/22 08:17:19;;;;;;;11.05;4.78;;;21.30;99.90;;;;;;5026391;28;20109;-74
2023/08/22 08:19:45;;;;;;;10.68;4.22;;;21.40;99.90;;;;;;5025196;28;20101;-75
2023/08/22 08:22:13;;;;;;;13.18;4.78;;;21.50;99.90;;;;;;5026818;28;20033;-75
2023/08/22 08:24:39;;;;;;;11.07;4.47;;;21.60;99.90;;;;;;5025169;28;20026;-75
2023/08/22 08:27:05;;;;;;;13.75;5.22;;;21.70;99.90;;;;;;5026577;28;20033;-75
2023/08/22 08:29:31;;;;;;;13.32;5.10;;;21.80;99.90;;;;;;5025977;28;20620;-77
2023/08/22 08:31:57;;;;;;;9.15;4.60;;;21.80;99.90;;;;;;5026138;28;20502;-72
2023/08/22 08:34:24;;;;;;;17.67;5.07;;;21.90;99.90;;;;;;5025752;28;20073;-72
2023/08/22 08:36:50;;;;;;;12.68;4.68;;;22.00;99.90;;;;;;5025847;28;20022;-75
2023/08/22 08:39:17;;;;;;;9.13;4.05;;;22.10;99.90;;;;;;5024925;28;20042;-74
2023/08/22 08:42:06;;;;;;;9.15;3.97;;;22.20;99.90;;;;;;5024489;28;20056;-77
2023/08/22 08:44:36;;;;;;;19.02;4.75;;;22.30;99.90;;;;;;5024487;28;20021;-73
2023/08/22 08:47:02;;;;;;;11.25;4.40;;;22.40;99.90;;;;;;5026152;28;20056;-74
2023/08/22 08:49:32;;;;;;;12.05;4.10;;;22.50;99.90;;;;;;5026505;28;20072;-72
2023/08/22 08:52:00;;;;;;;11.50;3.95;;;22.50;99.90;;;;;;5024279;28;20551;-69
2023/08/22 08:54:28;;;;;;;8.90;3.95;;;22.60;99.90;;;;;;5024550;28;20026;-76
2023/08/22 08:56:54;;;;;;;12.60;3.78;;;22.70;99.90;;;;;;5026118;28;20018;-74
2023/08/22 08:59:20;;;;;;;9.07;3.42;;;22.70;99.90;;;;;;5025830;28;20534;-72
2023/08/22 09:01:48;;;;;;;10.55;3.55;;;22.80;99.90;;;;;;5026488;28;20041;-72
2023/08/22 09:04:13;;;;;;;10.38;3.60;;;22.90;99.90;;;;;;5025463;28;20026;-73
2023/08/22 09:06:39;;;;;;;11.65;3.58;;;23.00;99.90;;;;;;5025469;28;20037;-74
2023/08/22 09:09:08;;;;;;;7.60;3.22;;;23.00;99.90;;;;;;5026192;28;20034;-72
2023/08/22 09:11:34;;;;;;;12.27;3.10;;;23.00;99.90;;;;;;5024523;28;20033;-72
2023/08/22 09:14:00;;;;;;;9.30;2.42;;;23.10;99.90;;;;;;5023996;28;20038;-72
2023/08/22 09:16:27;;;;;;;9.10;3.10;;;23.00;99.90;;;;;;5025874;28;20024;-74
2023/08/22 09:18:59;;;;;;;7.38;2.90;;;23.10;99.90;;;;;;5025747;28;20172;-78
2023/08/22 09:21:25;;;;;;;4.75;2.35;;;23.10;99.90;;;;;;5024331;28;20037;-81
2023/08/22 09:23:50;;;;;;;5.90;2.55;;;23.00;99.90;;;;;;5024152;28;20026;-76
2023/08/22 09:26:23;;;;;;;6.30;2.40;;;23.00;99.90;;;;;;5024767;28;20041;-75
2023/08/22 09:28:49;;;;;;;8.38;2.92;;;23.00;99.90;;;;;;5025292;28;20026;-72
2023/08/22 09:31:24;;;;;;;4.82;2.63;;;23.00;99.90;;;;;;5025763;28;20036;-74
2023/08/22 09:33:50;;;;;;;6.68;2.40;;;23.10;99.90;;;;;;5023596;28;20054;-74
2023/08/22 09:36:20;;;;;;;5.82;2.30;;;23.20;99.90;;;;;;5023894;28;20136;-74
2023/08/22 09:38:58;;;;;;;4.80;2.58;;;23.20;99.90;;;;;;5024306;28;20042;-74
2023/08/22 09:41:26;;;;;;;5.93;2.30;;;23.30;99.90;;;;;;5025030;28;20036;-75
2023/08/22 09:44:02;;;;;;;7.82;2.17;;;23.30;99.90;;;;;;5025155;28;20026;-76
2023/08/22 09:46:31;;;;;;;6.20;2.53;;;23.40;99.90;;;;;;5025174;28;20026;-76
2023/08/22 09:48:59;;;;;;;5.95;2.40;;;23.40;99.90;;;;;;5023537;28;20021;-78
2023/08/22 09:51:26;;;;;;;8.13;2.40;;;23.40;99.90;;;;;;5024947;28;20034;-74
2023/08/22 09:53:59;;;;;;;12.98;2.63;;;23.40;99.90;;;;;;5023565;28;20033;-75
2023/08/22 09:56:25;;;;;;;8.48;2.30;;;23.40;99.90;;;;;;5024806;28;20474;-76
2023/08/22 09:58:52;;;;;;;7.30;1.90;;;23.50;99.90;;;;;;5024866;28;20064;-74
2023/08/22 10:01:19;;;;;;;3.35;1.83;;;23.50;99.90;;;;;;5025148;28;20030;-74
2023/08/22 10:03:46;;;;;;;3.42;1.75;;;23.50;99.90;;;;;;5024597;28;20029;-74
2023/08/22 10:06:14;;;;;;;7.82;2.60;;;23.50;99.90;;;;;;5025161;28;20030;-77
2023/08/22 10:08:42;;;;;;;8.23;2.78;;;23.60;99.90;;;;;;5023923;28;20034;-76
2023/08/22 10:11:10;;;;;;;7.45;2.38;;;23.50;99.90;;;;;;5023352;28;20033;-73
2023/08/22 10:13:37;;;;;;;9.63;2.55;;;23.60;99.90;;;;;;5024797;28;20030;-74
2023/08/22 10:16:03;;;;;;;5.75;2.40;;;23.60;99.90;;;;;;5022830;28;20038;-73
2023/08/22 10:18:29;;;;;;;6.95;2.40;;;23.70;99.90;;;;;;5024447;28;20056;-74
2023/08/22 10:20:55;;;;;;;6.93;2.08;;;23.70;99.90;;;;;;5023179;28;20041;-74
2023/08/22 10:23:49;;;;;;;3.85;1.83;;;23.80;99.90;;;;;;5022573;28;20026;-75
2023/08/22 10:26:15;;;;;;;8.88;1.80;;;24.00;99.90;;;;;;5023409;28;20033;-75
2023/08/22 10:28:41;;;;;;;7.03;1.85;;;24.10;99.90;;;;;;5024706;28;20034;-74
2023/08/22 10:31:07;;;;;;;5.50;2.10;;;24.20;99.90;;;;;;5023486;28;20111;-76
2023/08/22 10:33:33;;;;;;;4.13;1.48;;;24.30;99.90;;;;;;5024217;28;20054;-74
2023/08/22 10:36:15;;;;;;;5.65;1.75;;;24.50;99.90;;;;;;5022513;28;20090;-74
2023/08/22 10:38:51;;;;;;;8.88;1.90;;;24.60;99.90;;;;;;5022865;28;20061;-74
2023/08/22 10:41:20;;;;;;;4.40;1.63;;;24.70;99.90;;;;;;5023350;28;20025;-76
2023/08/22 10:43:47;;;;;;;2.38;1.35;;;24.70;99.90;;;;;;5022887;28;20038;-74
2023/08/22 10:46:13;;;;;;;3.03;1.40;;;24.70;99.90;;;;;;5024474;28;20033;-75
2023/08/22 10:48:39;;;;;;;4.30;1.33;;;24.70;99.90;;;;;;5023260;28;20033;-74
2023/08/22 10:51:08;;;;;;;4.22;1.23;;;24.80;99.90;;;;;;5023831;28;20026;-72
2023/08/22 10:53:44;;;;;;;6.00;1.40;;;25.00;99.90;;;;;;5024434;28;21010;-73
2023/08/22 10:56:17;;;;;;;9.55;1.65;;;25.10;99.90;;;;;;5024539;28;20026;-76
2023/08/22 10:58:43;;;;;;;4.20;1.15;;;25.30;99.90;;;;;;5022860;28;20477;-72
2023/08/22 11:01:14;;;;;;;2.55;1.30;;;25.30;99.90;;;;;;5023203;28;20042;-76
2023/08/22 11:03:41;;;;;;;5.20;1.27;;;25.30;99.90;;;;;;5022853;28;20041;-76
2023/08/22 11:06:21;;;;;;;5.13;1.45;;;25.30;99.90;;;;;;5022771;28;20030;-76
2023/08/22 11:08:47;;;;;;;2.60;1.10;;;25.20;99.90;;;;;;5023138;28;20124;-75
2023/08/22 11:11:17;;;;;;;5.40;1.35;;;25.00;99.90;;;;;;5024156;28;20038;-76
2023/08/22 11:13:43;;;;;;;3.72;1.30;;;25.10;99.90;;;;;;5023835;28;20475;-72
2023/08/22 11:16:12;;;;;;;2.63;1.20;;;25.20;99.90;;;;;;5024014;28;20030;-76
2023/08/22 11:18:39;;;;;;;2.03;1.15;;;25.30;99.90;;;;;;5024029;28;20049;-75
2023/08/22 11:21:05;;;;;;;4.65;1.25;;;25.40;99.90;;;;;;5022281;28;20053;-75
2023/08/22 11:23:33;;;;;;;4.05;1.30;;;25.40;99.90;;;;;;5022738;28;20033;-74
2023/08/22 11:26:00;;;;;;;4.25;1.40;;;25.50;99.90;;;;;;5022560;28;20021;-74
2023/08/22 11:28:33;;;;;;;4.30;1.20;;;25.70;99.90;;;;;;5025022;28;20021;-74
2023/08/22 11:30:59;;;;;;;4.40;1.52;;;25.90;99.90;;;;;;5026532;28;20058;-75
2023/08/22 11:33:24;;;;;;;4.60;1.48;;;26.10;99.90;;;;;;5027062;28;20057;-74
2023/08/22 11:35:52;;;;;;;3.72;1.13;;;26.20;99.90;;;;;;5027801;28;20026;-74
2023/08/22 11:38:18;;;;;;;3.42;1.30;;;26.30;99.90;;;;;;5027716;28;20093;-72
2023/08/22 11:40:44;;;;;;;5.70;1.30;;;26.30;99.90;;;;;;5027610;28;20018;-74
2023/08/22 11:43:10;;;;;;;2.88;0.90;;;26.20;99.90;;;;;;5027365;28;20026;-78
2023/08/22 11:45:56;;;;;;;4.07;0.90;;;26.30;99.90;;;;;;5025910;28;20030;-73
2023/08/22 11:48:23;;;;;;;3.00;1.00;;;26.30;99.90;;;;;;5020192;28;20054;-77
2023/08/22 11:50:50;;;;;;;4.00;1.30;;;26.30;99.90;;;;;;5024991;28;20034;-74
2023/08/22 11:53:16;;;;;;;6.25;1.02;;;26.20;99.90;;;;;;5018015;28;20076;-72
2023/08/22 11:55:43;;;;;;;3.63;1.00;;;26.20;99.90;;;;;;5026583;28;20026;-73
2023/08/22 11:58:15;;;;;;;3.75;1.10;;;26.30;99.90;;;;;;5026543;28;20034;-77
2023/08/22 12:00:41;;;;;;;2.50;0.85;;;26.30;99.90;;;;;;5023310;28;20103;-78
2023/08/22 12:03:07;;;;;;;1.02;0.80;;;26.30;99.90;;;;;;5025400;28;20034;-76
2023/08/22 12:05:40;;;;;;;2.38;1.05;;;26.30;99.90;;;;;;5025789;28;20044;-74
2023/08/22 12:08:06;;;;;;;3.00;0.90;;;26.40;99.90;;;;;;5016559;28;20066;-74
2023/08/22 12:10:52;;;;;;;2.72;0.88;;;26.50;99.90;;;;;;5017471;28;20030;-77
2023/08/22 12:13:20;;;;;;;1.80;0.93;;;26.50;99.90;;;;;;5011770;28;20021;-74
2023/08/22 12:15:47;;;;;;;2.60;1.02;;;26.60;99.90;;;;;;5020156;28;20048;-72
2023/08/22 12:18:13;;;;;;;3.33;1.13;;;26.60;99.90;;;;;;5023191;28;20033;-72
2023/08/22 12:20:41;;;;;;;2.50;1.00;;;26.80;99.90;;;;;;5016207;28;20042;-75
2023/08/22 12:23:09;;;;;;;4.32;1.08;;;26.90;99.90;;;;;;5025440;28;20037;-78
2023/08/22 12:25:36;;;;;;;9.73;1.33;;;26.90;99.90;;;;;;5007127;28;20559;-73
2023/08/22 12:28:05;;;;;;;4.60;1.00;;;26.90;99.90;;;;;;5019077;28;20044;-75
2023/08/22 12:30:35;;;;;;;3.08;0.93;;;27.00;99.90;;;;;;5024725;28;20037;-73
2023/08/22 12:33:05;;;;;;;5.57;1.00;;;27.10;99.90;;;;;;5026212;28;20030;-75
2023/08/22 12:35:35;;;;;;;2.55;1.00;;;27.20;99.90;;;;;;5026271;28;20030;-73
2023/08/22 12:38:01;;;;;;;1.35;0.80;;;27.30;99.90;;;;;;5026289;28;20044;-73
2023/08/22 12:40:27;;;;;;;2.53;0.80;;;27.40;99.90;;;;;;5026068;28;20022;-73
2023/08/22 12:42:52;;;;;;;1.85;1.02;;;27.60;99.90;;;;;;5025768;28;20026;-74